Weather at Helsinki Vantaa Airport

Public forecast

Using degrees Celsius for public forecast. Weather courtesy of forecast.io.

Current aviation weather report (METAR) for Helsinki Vantaa Airport

2024/05/28 13:50 (retrieved 34 minutes ago)

EFHK 281350Z 21009KT 160V260 CAVOK 27/06 Q1018 NOSIG

Aviation forecast (TAF) for Helsinki Vantaa Airport

2024/05/28 12:42 (retrieved 2 hours ago)

TAF TAF EFHK 281134Z 2812/2912 18013KT CAVOK PROB30 TEMPO 2812/2814 FEW050CB BECMG 2820/2822 VRB02KT TEMPO 2909/2912 SHRA SCT060CB PROB30 TEMPO 2909/2912 TSRA